Time;durP1;ratioP1;P1;durP2;ratioP2;P2;SDS_P1;SDS_P2;PMS_P1;PMS_P2;Temp;Humidity;BMP_temperature;BMP_pressure;BME280_temperature;BME280_humidity;BME280_pressure;Samples;Min_cycle;Max_cycle;Signal;HPM_P1;HPM_P2
2023/03/27 00:00:27;;;;;;;42.67;15.63;;;11.90;74.70;;;;;;5052958;28;20096;-78
2023/03/27 00:02:53;;;;;;;32.67;13.73;;;11.90;74.20;;;;;;5052169;28;20117;-81
2023/03/27 00:05:19;;;;;;;32.88;12.80;;;11.90;74.50;;;;;;5053213;28;20087;-80
2023/03/27 00:07:48;;;;;;;30.13;11.10;;;12.00;74.70;;;;;;5053363;28;20040;-78
2023/03/27 00:10:15;;;;;;;27.60;10.75;;;12.00;74.80;;;;;;5051778;28;20025;-79
2023/03/27 00:12:43;;;;;;;26.98;10.27;;;12.00;75.00;;;;;;5053387;28;20029;-80
2023/03/27 00:15:15;;;;;;;41.08;12.50;;;12.00;74.30;;;;;;5053168;28;20021;-79
2023/03/27 00:17:43;;;;;;;37.72;12.52;;;12.00;75.20;;;;;;5051706;28;20159;-81
2023/03/27 00:20:09;;;;;;;38.05;13.43;;;12.00;74.90;;;;;;5053552;28;20026;-80
2023/03/27 00:22:35;;;;;;;41.42;13.30;;;12.10;76.30;;;;;;5052815;28;20479;-80
2023/03/27 00:25:01;;;;;;;31.10;12.50;;;12.10;76.00;;;;;;5052714;28;20040;-80
2023/03/27 00:27:26;;;;;;;33.78;11.77;;;12.10;75.40;;;;;;5052935;28;20032;-79
2023/03/27 00:29:52;;;;;;;35.28;12.32;;;12.10;75.30;;;;;;5053116;28;20032;-80
2023/03/27 00:32:19;;;;;;;31.35;11.43;;;12.10;75.00;;;;;;5052741;28;20021;-79
2023/03/27 00:34:45;;;;;;;31.67;12.20;;;12.10;74.30;;;;;;5051509;28;20104;-79
2023/03/27 00:37:11;;;;;;;29.52;12.65;;;12.20;74.90;;;;;;5051967;28;20025;-81
2023/03/27 00:39:38;;;;;;;27.65;11.38;;;12.20;73.10;;;;;;5051400;28;20033;-79
2023/03/27 00:42:04;;;;;;;32.25;14.20;;;12.30;74.00;;;;;;5051701;28;20029;-78
2023/03/27 00:44:34;;;;;;;21.48;9.20;;;12.30;72.40;;;;;;5053105;28;20105;-80
2023/03/27 00:47:02;;;;;;;26.35;10.38;;;12.40;72.50;;;;;;5051612;28;20123;-81
2023/03/27 00:49:32;;;;;;;27.73;11.38;;;12.40;71.80;;;;;;5051606;28;20437;-81
2023/03/27 00:52:00;;;;;;;27.80;11.43;;;12.50;72.60;;;;;;5047983;28;20589;-80
2023/03/27 00:54:28;;;;;;;25.80;10.73;;;12.50;72.10;;;;;;5055685;28;20025;-82
2023/03/27 00:57:04;;;;;;;25.73;10.32;;;12.50;71.40;;;;;;5057079;28;20096;-79
2023/03/27 00:59:35;;;;;;;17.38;7.20;;;12.50;71.40;;;;;;5055446;28;20040;-81
2023/03/27 01:02:02;;;;;;;16.40;7.57;;;12.50;72.30;;;;;;5057010;28;20150;-83
2023/03/27 01:04:30;;;;;;;16.52;7.60;;;12.60;71.80;;;;;;5055338;28;20054;-81
2023/03/27 01:06:59;;;;;;;12.32;6.40;;;12.60;71.90;;;;;;5054940;28;20033;-80
2023/03/27 01:09:25;;;;;;;18.10;7.70;;;12.70;70.90;;;;;;5056707;28;20107;-81
2023/03/27 01:12:09;;;;;;;17.10;7.75;;;12.70;70.90;;;;;;5056724;28;20052;-82
2023/03/27 01:14:47;;;;;;;15.77;7.20;;;12.70;70.60;;;;;;5055247;28;20032;-81
2023/03/27 01:17:32;;;;;;;15.88;6.05;;;12.70;70.20;;;;;;5056537;28;20100;-81
2023/03/27 01:20:29;;;;;;;14.63;6.65;;;12.80;69.20;;;;;;5054001;28;20051;-81
2023/03/27 01:23:22;;;;;;;20.77;7.50;;;12.80;69.20;;;;;;5056061;28;20044;-82
2023/03/27 01:26:15;;;;;;;15.52;4.55;;;12.90;68.20;;;;;;5056456;28;20456;-81
2023/03/27 01:29:07;;;;;;;16.20;6.60;;;12.90;68.60;;;;;;5054866;28;20040;-79
2023/03/27 01:32:00;;;;;;;22.92;10.10;;;13.00;67.70;;;;;;5056441;28;20472;-80
2023/03/27 01:34:41;;;;;;;11.93;5.47;;;13.00;68.80;;;;;;5035242;28;20030;-82
2023/03/27 01:37:32;;;;;;;12.05;5.68;;;13.00;68.40;;;;;;5045945;28;20060;-81
2023/03/27 01:40:42;;;;;;;12.13;5.20;;;13.00;68.40;;;;;;5055424;28;20120;-80
2023/03/27 01:43:31;;;;;;;11.23;5.07;;;13.00;69.10;;;;;;5055452;28;20029;-79
2023/03/27 01:46:06;;;;;;;10.10;4.60;;;13.00;68.80;;;;;;5056548;28;20099;-80
2023/03/27 01:48:43;;;;;;;11.77;5.25;;;12.90;69.20;;;;;;5054931;28;20025;-80
2023/03/27 01:51:18;;;;;;;14.95;6.38;;;12.90;70.10;;;;;;5055283;28;20029;-79
2023/03/27 01:53:56;;;;;;;13.18;6.25;;;12.90;70.30;;;;;;5056557;28;20028;-80
2023/03/27 01:56:36;;;;;;;12.63;5.32;;;12.90;70.10;;;;;;5054913;28;20374;-79
2023/03/27 01:59:15;;;;;;;21.00;9.10;;;12.90;70.30;;;;;;5055249;28;20031;-80
2023/03/27 02:01:45;;;;;;;12.02;5.45;;;12.90;69.90;;;;;;5056107;28;20090;-82
2023/03/27 02:04:20;;;;;;;9.65;5.00;;;12.80;69.90;;;;;;5054084;28;20029;-79
2023/03/27 02:06:52;;;;;;;9.27;4.95;;;12.90;69.80;;;;;;5056111;28;20075;-80
2023/03/27 02:09:43;;;;;;;6.68;4.03;;;12.90;69.60;;;;;;5055388;28;20068;-82
2023/03/27 02:12:29;;;;;;;8.38;4.40;;;12.90;68.50;;;;;;5055344;28;20033;-82
2023/03/27 02:15:00;;;;;;;8.38;4.55;;;13.00;68.10;;;;;;5076679;28;20115;-81
2023/03/27 02:17:27;;;;;;;14.85;7.45;;;13.10;67.20;;;;;;5054026;28;20029;-81
2023/03/27 02:20:08;;;;;;;15.60;7.25;;;13.10;67.70;;;;;;5053925;28;20491;-80
2023/03/27 02:22:34;;;;;;;13.93;7.28;;;13.10;67.10;;;;;;5053764;28;20471;-80
2023/03/27 02:25:00;;;;;;;11.65;4.80;;;13.10;68.00;;;;;;5053977;28;20037;-80
2023/03/27 02:27:40;;;;;;;11.57;5.40;;;13.00;68.70;;;;;;5053978;28;20036;-81
2023/03/27 02:30:12;;;;;;;18.25;8.25;;;13.00;69.00;;;;;;5054930;28;20024;-82
2023/03/27 02:32:44;;;;;;;20.02;8.55;;;12.90;69.50;;;;;;5054994;28;20021;-81
2023/03/27 02:35:16;;;;;;;26.63;10.18;;;12.90;69.80;;;;;;5053771;28;20029;-81
2023/03/27 02:37:53;;;;;;;29.25;11.40;;;12.80;70.80;;;;;;5055091;28;20029;-81
2023/03/27 02:40:50;;;;;;;26.55;11.30;;;12.70;71.70;;;;;;5054427;28;20105;-80
2023/03/27 02:43:31;;;;;;;38.15;12.50;;;12.70;72.00;;;;;;5054226;28;20103;-81
2023/03/27 02:46:22;;;;;;;12.52;6.18;;;12.70;72.10;;;;;;5053501;28;20032;-80
2023/03/27 02:48:53;;;;;;;18.35;7.30;;;12.70;72.20;;;;;;5053736;28;20063;-80
2023/03/27 02:51:56;;;;;;;18.05;6.63;;;12.70;72.30;;;;;;5053930;28;20029;-80
2023/03/27 02:54:33;;;;;;;20.92;7.82;;;12.60;73.00;;;;;;4998690;28;20034;-78
2023/03/27 02:57:04;;;;;;;12.50;6.43;;;12.60;73.60;;;;;;4997730;28;20032;-80
2023/03/27 02:59:41;;;;;;;16.50;6.83;;;12.60;73.70;;;;;;5023489;28;20048;-83
2023/03/27 03:02:13;;;;;;;16.63;7.13;;;12.60;74.10;;;;;;5032285;28;20349;-80
2023/03/27 03:04:41;;;;;;;;;;;12.60;74.10;;;;;;5032366;28;20120;-82
2023/03/27 03:07:10;;;;;;;16.42;6.72;;;12.60;73.60;;;;;;5032312;28;19905;-82
2023/03/27 03:09:36;;;;;;;20.58;8.38;;;12.60;74.10;;;;;;5015686;28;20049;-79
2023/03/27 03:12:02;;;;;;;12.57;5.40;;;12.50;74.20;;;;;;5015070;28;20045;-82
2023/03/27 03:14:35;;;;;;;18.90;6.85;;;12.50;74.60;;;;;;5031235;28;20041;-80
2023/03/27 03:17:01;;;;;;;25.75;9.40;;;12.60;73.50;;;;;;5009850;28;20045;-80
2023/03/27 03:19:26;;;;;;;11.40;5.22;;;12.70;72.40;;;;;;5015005;28;20029;-80
2023/03/27 03:21:53;;;;;;;14.73;7.00;;;12.80;73.20;;;;;;5015409;28;20053;-80
2023/03/27 03:24:21;;;;;;;21.08;8.13;;;12.80;73.40;;;;;;5015216;28;20164;-80
2023/03/27 03:26:51;;;;;;;78.55;29.35;;;12.80;73.00;;;;;;5031538;28;20029;-79
2023/03/27 03:29:18;;;;;;;27.85;11.57;;;12.90;72.80;;;;;;5031894;28;20065;-79
2023/03/27 03:31:44;;;;;;;16.80;7.35;;;12.90;71.90;;;;;;5051421;28;20033;-78
2023/03/27 03:34:15;;;;;;;44.55;17.60;;;12.90;72.40;;;;;;5052372;28;20111;-79
2023/03/27 03:36:41;;;;;;;44.43;17.50;;;12.90;73.80;;;;;;5053059;28;20025;-81
2023/03/27 03:39:07;;;;;;;11.35;5.75;;;12.80;74.90;;;;;;5052555;28;20087;-80
2023/03/27 03:41:33;;;;;;;8.32;4.03;;;12.70;76.70;;;;;;5052833;28;20029;-80
2023/03/27 03:43:58;;;;;;;7.00;4.15;;;12.50;84.60;;;;;;5054060;28;20032;-81
2023/03/27 03:46:24;;;;;;;7.28;3.42;;;11.90;99.90;;;;;;5053068;28;20548;-80
2023/03/27 03:48:50;;;;;;;6.75;4.10;;;11.50;99.90;;;;;;5052559;28;20379;-82
2023/03/27 03:51:16;;;;;;;5.85;2.55;;;11.00;99.90;;;;;;5054016;28;20028;-79
2023/03/27 03:53:42;;;;;;;7.53;3.40;;;10.80;99.90;;;;;;5053555;28;20029;-78
2023/03/27 03:56:08;;;;;;;9.18;4.10;;;10.60;99.90;;;;;;5052957;28;20029;-77
2023/03/27 03:58:33;;;;;;;13.38;6.32;;;10.40;99.90;;;;;;5054195;28;20036;-78
2023/03/27 04:01:01;;;;;;;8.20;4.15;;;10.30;99.90;;;;;;5053475;28;20025;-79
2023/03/27 04:03:30;;;;;;;5.80;2.58;;;10.20;99.90;;;;;;5053952;28;20079;-76
2023/03/27 04:06:00;;;;;;;7.15;2.80;;;10.10;99.90;;;;;;5054194;28;20053;-77
2023/03/27 04:08:26;;;;;;;7.72;3.30;;;10.00;99.90;;;;;;5053617;28;20029;-79
2023/03/27 04:10:52;;;;;;;4.82;3.08;;;10.00;99.90;;;;;;5052665;28;20375;-75
2023/03/27 04:13:18;;;;;;;10.80;3.45;;;9.90;99.90;;;;;;5052655;28;20028;-77
2023/03/27 04:15:44;;;;;;;8.32;4.13;;;10.00;99.90;;;;;;5053981;28;20025;-79
2023/03/27 04:18:09;;;;;;;6.35;4.75;;;9.90;99.90;;;;;;5053555;28;20063;-78
2023/03/27 04:20:36;;;;;;;4.20;3.05;;;9.90;99.90;;;;;;5054061;28;20514;-77
2023/03/27 04:23:02;;;;;;;7.20;2.60;;;10.00;99.90;;;;;;5053571;28;20052;-79
2023/03/27 04:25:28;;;;;;;5.38;3.13;;;10.00;99.90;;;;;;5052225;28;20159;-78
2023/03/27 04:27:55;;;;;;;17.48;7.60;;;10.00;99.90;;;;;;5052525;28;20032;-78
2023/03/27 04:30:23;;;;;;;21.75;10.60;;;10.00;99.90;;;;;;5052034;28;20029;-78
2023/03/27 04:32:50;;;;;;;7.25;3.03;;;10.00;99.90;;;;;;5053524;28;20175;-79
2023/03/27 04:35:17;;;;;;;16.55;8.63;;;9.90;99.90;;;;;;5052363;28;20379;-76
2023/03/27 04:37:44;;;;;;;7.57;3.35;;;9.90;99.90;;;;;;5053353;28;20021;-76
2023/03/27 04:40:12;;;;;;;9.48;4.63;;;9.90;99.90;;;;;;5052331;28;20025;-78
2023/03/27 04:42:43;;;;;;;8.50;4.32;;;9.90;99.90;;;;;;5053109;28;20025;-78
2023/03/27 04:45:16;;;;;;;20.25;9.00;;;9.90;99.90;;;;;;5053636;28;20053;-76
2023/03/27 04:47:42;;;;;;;21.63;10.73;;;9.80;99.90;;;;;;5053313;28;20025;-77
2023/03/27 04:50:10;;;;;;;16.80;7.70;;;9.90;99.90;;;;;;5052912;28;20052;-78
2023/03/27 04:52:36;;;;;;;7.00;3.65;;;9.90;99.90;;;;;;5052308;28;20079;-79
2023/03/27 04:55:03;;;;;;;6.00;3.38;;;9.80;99.90;;;;;;5053469;28;20356;-79
2023/03/27 04:57:30;;;;;;;10.43;5.57;;;9.90;99.90;;;;;;5053514;28;20053;-77
2023/03/27 04:59:58;;;;;;;6.35;3.50;;;9.90;99.90;;;;;;5053496;28;20029;-79
2023/03/27 05:02:25;;;;;;;6.57;3.20;;;9.90;99.90;;;;;;5053454;28;20079;-78
2023/03/27 05:04:57;;;;;;;5.85;2.15;;;9.90;99.90;;;;;;5052814;28;20025;-78
2023/03/27 05:07:24;;;;;;;4.70;3.10;;;9.80;99.90;;;;;;5052224;28;20021;-76
2023/03/27 05:09:50;;;;;;;5.30;3.22;;;9.80;99.90;;;;;;5052979;28;20076;-78
2023/03/27 05:12:16;;;;;;;6.68;3.83;;;9.80;99.90;;;;;;5051704;28;20057;-77
2023/03/27 05:14:41;;;;;;;6.65;3.17;;;9.80;99.90;;;;;;5053072;28;20033;-79
2023/03/27 05:17:08;;;;;;;7.15;4.05;;;9.80;99.90;;;;;;5053146;28;20054;-75
2023/03/27 05:19:34;;;;;;;5.90;3.60;;;9.80;99.90;;;;;;5053020;28;20051;-77
2023/03/27 05:22:00;;;;;;;4.97;3.30;;;9.80;99.90;;;;;;5052023;28;20407;-77
2023/03/27 05:24:26;;;;;;;5.72;3.28;;;9.90;99.90;;;;;;5053096;28;20364;-78
2023/03/27 05:26:52;;;;;;;10.73;5.15;;;9.90;99.90;;;;;;5052908;28;20096;-78
2023/03/27 05:29:17;;;;;;;10.30;5.40;;;9.90;99.90;;;;;;5053074;28;20036;-77
2023/03/27 05:31:43;;;;;;;7.25;4.40;;;10.00;99.90;;;;;;5052857;28;20096;-76
2023/03/27 05:34:10;;;;;;;9.75;4.80;;;10.10;99.90;;;;;;5051721;28;20164;-77
2023/03/27 05:36:36;;;;;;;13.43;5.22;;;10.10;99.90;;;;;;5052220;28;20379;-76
2023/03/27 05:39:02;;;;;;;9.15;5.75;;;10.10;99.90;;;;;;5055558;28;20040;-77
2023/03/27 05:41:28;;;;;;;10.35;5.35;;;10.20;99.90;;;;;;5056764;28;20075;-78
2023/03/27 05:43:54;;;;;;;8.95;4.57;;;10.20;99.90;;;;;;5056426;28;20048;-79
2023/03/27 05:46:20;;;;;;;7.50;3.70;;;10.30;99.90;;;;;;5056060;28;20036;-79
2023/03/27 05:48:47;;;;;;;6.53;4.72;;;10.30;99.90;;;;;;5056561;28;20171;-78
2023/03/27 05:51:13;;;;;;;8.95;5.60;;;10.30;99.90;;;;;;5055253;28;20036;-79
2023/03/27 05:53:38;;;;;;;7.68;3.80;;;10.30;99.90;;;;;;5055025;28;20029;-80
2023/03/27 05:56:08;;;;;;;10.15;4.60;;;10.30;99.90;;;;;;5056245;28;20463;-78
2023/03/27 05:58:34;;;;;;;4.38;3.05;;;10.40;99.90;;;;;;5056762;28;20032;-77
2023/03/27 06:01:02;;;;;;;4.80;2.58;;;10.30;99.90;;;;;;5056330;28;20025;-78
2023/03/27 06:03:29;;;;;;;11.60;6.85;;;10.40;99.90;;;;;;5056570;28;20025;-81
2023/03/27 06:05:58;;;;;;;7.40;3.25;;;10.40;99.90;;;;;;5056321;28;20025;-78
2023/03/27 06:08:25;;;;;;;6.30;3.60;;;10.40;99.90;;;;;;5056101;28;20490;-77
2023/03/27 06:10:51;;;;;;;6.25;3.97;;;10.40;99.90;;;;;;5055925;28;20027;-79
2023/03/27 06:13:17;;;;;;;6.45;3.15;;;10.40;99.90;;;;;;5055924;28;20025;-78
2023/03/27 06:15:43;;;;;;;5.30;3.13;;;10.50;99.90;;;;;;5054467;28;20029;-80
2023/03/27 06:18:10;;;;;;;7.82;4.72;;;10.50;99.90;;;;;;5056167;28;20036;-78
2023/03/27 06:20:37;;;;;;;8.45;4.40;;;10.60;99.90;;;;;;5055611;28;20029;-80
2023/03/27 06:23:05;;;;;;;13.98;5.57;;;10.70;99.90;;;;;;5055433;28;20099;-78
2023/03/27 06:25:32;;;;;;;9.25;5.15;;;10.70;99.90;;;;;;5054546;28;20028;-79
2023/03/27 06:27:58;;;;;;;6.30;3.78;;;10.80;99.90;;;;;;5054305;28;20040;-81
2023/03/27 06:30:25;;;;;;;6.70;3.72;;;10.90;99.90;;;;;;5055779;28;20025;-78
2023/03/27 06:32:57;;;;;;;5.15;3.22;;;11.00;99.90;;;;;;5055348;28;20025;-79
2023/03/27 06:35:25;;;;;;;8.95;4.40;;;11.00;99.90;;;;;;5055416;28;20035;-79
2023/03/27 06:37:51;;;;;;;7.80;4.20;;;11.00;99.90;;;;;;5054589;28;20490;-79
2023/03/27 06:40:21;;;;;;;6.65;3.85;;;11.20;99.90;;;;;;5055621;28;20549;-83
2023/03/27 06:42:50;;;;;;;5.40;3.75;;;11.30;99.90;;;;;;5055301;28;20025;-78
2023/03/27 06:45:16;;;;;;;7.05;4.10;;;11.30;99.90;;;;;;5055289;28;20486;-80
2023/03/27 06:47:50;;;;;;;144.82;55.08;;;11.50;99.90;;;;;;5054065;28;20029;-79
2023/03/27 06:50:16;;;;;;;97.88;44.17;;;11.50;99.90;;;;;;5054657;28;20021;-77
2023/03/27 06:52:42;;;;;;;14.13;6.20;;;11.60;99.90;;;;;;5055146;28;20036;-79
2023/03/27 06:55:08;;;;;;;15.55;7.05;;;11.60;99.90;;;;;;5055316;28;20025;-79
2023/03/27 06:57:35;;;;;;;7.05;5.10;;;11.70;99.90;;;;;;5053713;28;20028;-80
2023/03/27 07:00:10;;;;;;;7.28;3.38;;;11.80;99.90;;;;;;5055523;28;20036;-80
2023/03/27 07:02:36;;;;;;;17.00;7.22;;;11.80;99.90;;;;;;5054964;28;20028;-79
2023/03/27 07:05:01;;;;;;;8.98;4.18;;;12.00;99.90;;;;;;5054874;28;20025;-79
2023/03/27 07:07:27;;;;;;;9.38;3.95;;;12.00;99.90;;;;;;5054932;28;20025;-79
2023/03/27 07:09:53;;;;;;;12.00;6.10;;;12.00;99.90;;;;;;5053511;28;20360;-80
2023/03/27 07:12:18;;;;;;;16.60;7.75;;;12.10;99.90;;;;;;5054699;28;20123;-81
2023/03/27 07:14:44;;;;;;;12.82;5.22;;;12.10;99.90;;;;;;5055011;28;20032;-79
2023/03/27 07:17:10;;;;;;;12.02;6.63;;;12.20;99.90;;;;;;5053388;28;20036;-80
2023/03/27 07:19:36;;;;;;;14.40;6.10;;;12.30;99.90;;;;;;5054587;28;20384;-79
2023/03/27 07:22:02;;;;;;;8.45;4.57;;;12.50;99.90;;;;;;5054731;28;20061;-82
2023/03/27 07:24:27;;;;;;;10.60;5.90;;;12.60;99.90;;;;;;5053163;28;20068;-78
2023/03/27 07:26:53;;;;;;;15.77;7.35;;;12.70;99.90;;;;;;5053610;28;20032;-78
2023/03/27 07:29:19;;;;;;;16.10;6.45;;;12.70;99.90;;;;;;5054305;28;20546;-81
2023/03/27 07:32:05;;;;;;;8.90;4.70;;;12.90;99.90;;;;;;5054161;28;20028;-82
2023/03/27 07:34:32;;;;;;;14.77;6.28;;;13.00;99.90;;;;;;5052841;28;20139;-79
2023/03/27 07:36:58;;;;;;;13.40;5.82;;;13.00;99.90;;;;;;5054686;28;20060;-81
2023/03/27 07:39:24;;;;;;;13.05;6.55;;;12.90;99.90;;;;;;5051639;28;20222;-81
2023/03/27 07:41:51;;;;;;;11.63;6.03;;;13.00;99.90;;;;;;5052830;28;20069;-80
2023/03/27 07:44:17;;;;;;;18.83;7.97;;;13.00;99.90;;;;;;5052883;28;20036;-79
2023/03/27 07:46:44;;;;;;;16.45;8.52;;;13.10;99.90;;;;;;5053035;28;20024;-82
2023/03/27 07:49:10;;;;;;;17.70;8.88;;;13.20;99.90;;;;;;5051657;28;20033;-81
2023/03/27 07:51:37;;;;;;;13.80;6.45;;;13.40;99.90;;;;;;5052614;28;20455;-79
2023/03/27 07:54:03;;;;;;;19.58;8.27;;;13.40;99.90;;;;;;5054588;28;20025;-80
2023/03/27 07:56:32;;;;;;;28.75;12.07;;;13.40;99.90;;;;;;5051994;28;20025;-78
2023/03/27 07:58:58;;;;;;;323.00;112.78;;;13.50;99.90;;;;;;5052364;28;20471;-80
2023/03/27 08:01:27;;;;;;;310.27;108.88;;;13.60;99.90;;;;;;5053447;28;20356;-81
2023/03/27 08:03:53;;;;;;;233.38;81.03;;;13.80;99.90;;;;;;5054124;28;20108;-80
2023/03/27 08:06:19;;;;;;;311.40;97.63;;;14.00;99.90;;;;;;5053866;28;20104;-81
2023/03/27 08:08:45;;;;;;;76.78;31.98;;;13.90;99.90;;;;;;5052804;28;20029;-80
2023/03/27 08:11:11;;;;;;;15.93;8.63;;;14.20;99.90;;;;;;5053094;28;20025;-81
2023/03/27 08:13:37;;;;;;;17.70;9.52;;;14.10;99.90;;;;;;5052463;28;20028;-81
2023/03/27 08:16:11;;;;;;;9.48;4.63;;;14.20;99.90;;;;;;5053600;28;20040;-82
2023/03/27 08:18:37;;;;;;;8.48;3.90;;;14.30;99.90;;;;;;5052686;28;20062;-82
2023/03/27 08:21:05;;;;;;;10.45;4.50;;;14.40;99.90;;;;;;5052314;28;20025;-83
2023/03/27 08:24:03;;;;;;;8.82;4.90;;;14.50;99.90;;;;;;5051518;28;20107;-83
2023/03/27 08:26:31;;;;;;;11.23;5.80;;;14.40;99.90;;;;;;5031240;28;20022;-80
2023/03/27 08:28:57;;;;;;;42.63;17.30;;;14.50;99.90;;;;;;5030738;28;20034;-81
2023/03/27 08:31:24;;;;;;;13.13;5.80;;;14.70;99.90;;;;;;5031780;28;20467;-83
2023/03/27 08:33:50;;;;;;;10.80;5.90;;;14.70;99.90;;;;;;5030899;28;20112;-78
2023/03/27 08:36:18;;;;;;;63.55;24.40;;;14.80;99.90;;;;;;5032533;28;20113;-81
2023/03/27 08:38:44;;;;;;;33.13;15.07;;;14.90;99.90;;;;;;5032458;28;20120;-79
2023/03/27 08:41:26;;;;;;;28.85;12.13;;;14.80;99.90;;;;;;5031511;28;20098;-82
2023/03/27 08:43:55;;;;;;;8.37;4.60;;;15.00;99.90;;;;;;5033634;28;20108;-81
2023/03/27 08:46:34;;;;;;;38.80;16.10;;;14.90;99.90;;;;;;5032464;28;20063;-79
2023/03/27 08:49:06;;;;;;;19.10;10.05;;;15.00;99.90;;;;;;5032079;28;20044;-82
2023/03/27 08:51:38;;;;;;;15.20;8.52;;;15.10;99.90;;;;;;5033307;28;20065;-81
2023/03/27 08:54:20;;;;;;;10.93;5.45;;;14.90;99.90;;;;;;5032581;28;20022;-79
2023/03/27 08:56:47;;;;;;;14.15;4.93;;;14.70;99.90;;;;;;5032166;28;20026;-80
2023/03/27 08:59:16;;;;;;;6.95;3.95;;;14.50;99.90;;;;;;5032304;28;20040;-81
2023/03/27 09:01:58;;;;;;;10.68;5.57;;;14.50;99.90;;;;;;5032105;28;20392;-81
2023/03/27 09:04:50;;;;;;;8.07;4.03;;;14.60;99.90;;;;;;5032354;28;20033;-82
2023/03/27 09:07:46;;;;;;;8.00;4.55;;;14.60;99.90;;;;;;5032263;28;20022;-79
2023/03/27 09:10:58;;;;;;;4.70;2.42;;;14.50;99.90;;;;;;5031477;28;20071;-82
2023/03/27 09:13:39;;;;;;;5.70;2.63;;;14.00;99.90;;;;;;4994382;28;20030;-79
2023/03/27 09:16:15;;;;;;;5.95;3.30;;;13.50;99.90;;;;;;4978859;28;20388;-82
2023/03/27 09:18:43;;;;;;;11.63;5.13;;;12.90;99.90;;;;;;4995063;28;20053;-80
2023/03/27 09:21:16;;;;;;;9.38;3.80;;;12.20;99.90;;;;;;4978816;28;20129;-79
2023/03/27 09:23:46;;;;;;;12.07;4.50;;;11.60;99.90;;;;;;4994862;28;20053;-79
2023/03/27 09:26:19;;;;;;;11.40;4.95;;;11.30;99.90;;;;;;4995434;28;20031;-79
2023/03/27 09:28:50;;;;;;;13.18;5.38;;;11.20;99.90;;;;;;4995280;28;20050;-82
2023/03/27 09:31:35;;;;;;;8.07;4.38;;;11.20;99.90;;;;;;4995117;28;20027;-81
2023/03/27 09:34:06;;;;;;;7.75;4.50;;;11.10;99.90;;;;;;4995494;28;20027;-82
2023/03/27 09:36:34;;;;;;;9.00;4.90;;;11.00;99.90;;;;;;4994827;28;20052;-80
2023/03/27 09:39:14;;;;;;;7.40;3.90;;;11.00;99.90;;;;;;4995123;28;20073;-81
2023/03/27 09:41:46;;;;;;;12.90;9.27;;;11.00;99.90;;;;;;4995157;28;20122;-80
2023/03/27 09:44:14;;;;;;;9.98;5.28;;;11.20;99.90;;;;;;4994666;28;20568;-79
2023/03/27 09:46:45;;;;;;;13.00;7.47;;;11.40;99.90;;;;;;5004062;28;20120;-81
2023/03/27 09:49:16;;;;;;;11.65;7.28;;;11.40;99.90;;;;;;5035366;28;20038;-80
2023/03/27 09:51:45;;;;;;;16.00;8.43;;;11.60;99.90;;;;;;5036704;28;20033;-80
2023/03/27 09:54:13;;;;;;;11.90;8.27;;;11.80;99.90;;;;;;5036923;28;20108;-80
2023/03/27 09:56:55;;;;;;;18.75;9.30;;;11.90;99.90;;;;;;5035457;28;20383;-79
2023/03/27 09:59:27;;;;;;;10.25;5.95;;;12.00;99.90;;;;;;5034674;28;20040;-79
2023/03/27 10:02:08;;;;;;;8.23;5.28;;;12.00;99.90;;;;;;5035266;28;20390;-80
2023/03/27 10:04:34;;;;;;;11.95;6.55;;;12.00;99.90;;;;;;5036427;28;20053;-82
2023/03/27 10:07:09;;;;;;;12.07;6.20;;;11.70;99.90;;;;;;5035502;28;20371;-82
2023/03/27 10:09:38;;;;;;;9.98;5.90;;;11.50;99.90;;;;;;5036400;28;20037;-79
2023/03/27 10:12:08;;;;;;;9.93;7.78;;;11.10;99.90;;;;;;5034727;28;20036;-82
2023/03/27 10:14:44;;;;;;;7.70;5.05;;;10.80;99.90;;;;;;5036686;28;20021;-79
2023/03/27 10:17:36;;;;;;;8.63;4.38;;;10.70;99.90;;;;;;5034990;28;20064;-82
2023/03/27 10:20:17;;;;;;;5.68;3.90;;;10.50;99.90;;;;;;5035487;28;20033;-82
2023/03/27 10:22:55;;;;;;;9.50;6.00;;;10.50;99.90;;;;;;5034726;28;20077;-82
2023/03/27 10:25:33;;;;;;;14.07;6.93;;;10.60;99.90;;;;;;5034752;28;20030;-81
2023/03/27 10:28:22;;;;;;;10.25;5.88;;;10.60;99.90;;;;;;5034720;28;20022;-80
2023/03/27 10:30:59;;;;;;;10.75;5.80;;;10.60;99.90;;;;;;5034878;28;20376;-82
2023/03/27 10:33:35;;;;;;;12.05;4.25;;;10.80;99.90;;;;;;5034286;28;20124;-81
2023/03/27 10:36:03;;;;;;;12.25;6.88;;;10.70;99.90;;;;;;5034316;28;20033;-80
2023/03/27 10:38:31;;;;;;;11.30;6.05;;;10.90;99.90;;;;;;5035977;28;20037;-79
2023/03/27 10:40:57;;;;;;;17.20;7.32;;;10.80;99.90;;;;;;5035382;28;20502;-81
2023/03/27 10:43:35;;;;;;;14.30;6.75;;;10.80;99.90;;;;;;5034441;28;20452;-80
2023/03/27 10:46:05;;;;;;;11.35;3.97;;;10.60;99.90;;;;;;5035679;28;20075;-81
2023/03/27 10:48:51;;;;;;;8.60;4.53;;;10.40;99.90;;;;;;5035422;28;20064;-81
2023/03/27 10:51:42;;;;;;;14.73;7.50;;;10.20;99.90;;;;;;5034314;28;20464;-79
2023/03/27 10:54:16;;;;;;;13.43;7.43;;;10.20;99.90;;;;;;5035251;28;20460;-80
2023/03/27 10:56:52;;;;;;;12.07;5.75;;;10.20;99.90;;;;;;5034119;28;20029;-79
2023/03/27 10:59:25;;;;;;;11.05;4.88;;;10.20;99.90;;;;;;5034206;28;20123;-79
2023/03/27 11:01:57;;;;;;;14.30;5.65;;;10.30;99.90;;;;;;5034041;28;20080;-78
2023/03/27 11:04:48;;;;;;;11.07;4.78;;;10.30;99.90;;;;;;5035295;28;20027;-80
2023/03/27 11:07:25;;;;;;;13.33;5.17;;;10.30;99.90;;;;;;5035556;28;20040;-81
2023/03/27 11:10:00;;;;;;;17.63;6.07;;;10.20;99.90;;;;;;5034626;28;20065;-80
2023/03/27 11:12:30;;;;;;;14.55;7.25;;;10.10;99.90;;;;;;5035160;28;20029;-80
2023/03/27 11:15:06;;;;;;;17.08;8.35;;;10.00;99.90;;;;;;5033654;28;20021;-80
2023/03/27 11:17:42;;;;;;;17.35;8.32;;;10.00;99.90;;;;;;5035449;28;20400;-81
2023/03/27 11:20:34;;;;;;;14.10;6.78;;;10.10;99.90;;;;;;5034905;28;20021;-79
2023/03/27 11:23:44;;;;;;;14.00;6.53;;;10.00;99.90;;;;;;5010023;28;20468;-80
2023/03/27 11:26:14;;;;;;;17.98;10.32;;;10.00;99.90;;;;;;5009053;28;20080;-80
2023/03/27 11:28:51;;;;;;;52.33;24.05;;;9.90;99.90;;;;;;5014441;28;20380;-78
2023/03/27 11:31:31;;;;;;;11.18;6.13;;;10.00;99.90;;;;;;5014977;28;20053;-78
2023/03/27 11:34:05;;;;;;;12.57;6.05;;;9.90;99.90;;;;;;5015346;28;20033;-78
2023/03/27 11:36:51;;;;;;;12.75;5.93;;;9.80;99.90;;;;;;5013805;28;20053;-79
2023/03/27 11:39:25;;;;;;;6.63;3.53;;;9.70;99.90;;;;;;5013602;28;20488;-78
2023/03/27 11:41:57;;;;;;;9.30;4.75;;;9.60;99.90;;;;;;5014906;28;20028;-79
2023/03/27 11:44:24;;;;;;;14.98;8.88;;;9.70;99.90;;;;;;5014275;28;20040;-78
2023/03/27 11:47:19;;;;;;;17.55;7.28;;;10.00;99.90;;;;;;5014727;28;20453;-78
2023/03/27 11:50:17;;;;;;;64.13;24.05;;;10.10;99.90;;;;;;5012788;28;20033;-79
2023/03/27 11:52:55;;;;;;;36.55;14.90;;;10.20;99.90;;;;;;5009947;28;20493;-79
2023/03/27 11:55:56;;;;;;;33.80;14.07;;;10.10;99.90;;;;;;5013361;28;20032;-78
2023/03/27 11:58:42;;;;;;;66.90;23.27;;;10.10;99.90;;;;;;5014314;28;20033;-78
2023/03/27 12:01:31;;;;;;;73.40;30.88;;;10.20;99.90;;;;;;5014790;28;20457;-79
2023/03/27 12:04:23;;;;;;;37.97;20.05;;;10.10;99.90;;;;;;5013945;28;20034;-79
2023/03/27 12:07:12;;;;;;;36.60;17.00;;;10.20;99.90;;;;;;5014829;28;20029;-79
2023/03/27 12:10:00;;;;;;;23.55;11.88;;;10.20;99.90;;;;;;5014331;28;20116;-79
2023/03/27 12:12:38;;;;;;;14.68;7.45;;;10.30;99.90;;;;;;5013963;28;20084;-81
2023/03/27 12:15:25;;;;;;;9.40;5.50;;;10.40;99.90;;;;;;5014111;28;20084;-78
2023/03/27 12:18:03;;;;;;;13.30;7.32;;;10.50;99.90;;;;;;5013690;28;20026;-79
2023/03/27 12:20:56;;;;;;;20.80;10.85;;;10.80;99.90;;;;;;5014251;28;20029;-78
2023/03/27 12:23:36;;;;;;;11.32;5.32;;;11.00;99.90;;;;;;5015263;28;20067;-80
2023/03/27 12:26:26;;;;;;;7.68;3.88;;;11.50;99.90;;;;;;5013871;28;20026;-79
2023/03/27 12:29:08;;;;;;;13.82;5.60;;;12.40;99.90;;;;;;5012787;28;20030;-81
2023/03/27 12:32:00;;;;;;;14.40;4.75;;;12.80;99.90;;;;;;5012576;28;20030;-78
2023/03/27 12:34:48;;;;;;;;;;;12.60;99.90;;;;;;5014266;28;20041;-78
2023/03/27 12:37:17;;;;;;;11.70;5.03;;;12.10;99.90;;;;;;5013992;28;19945;-79
2023/03/27 12:39:56;;;;;;;40.10;10.13;;;11.80;99.90;;;;;;5013771;28;20034;-78
2023/03/27 12:42:51;;;;;;;32.45;6.85;;;11.90;99.90;;;;;;5014870;28;20056;-80
2023/03/27 12:45:22;;;;;;;13.05;4.90;;;11.70;99.90;;;;;;5045755;28;20120;-82
2023/03/27 12:48:10;;;;;;;9.97;3.67;;;12.00;99.90;;;;;;5036122;28;20033;-79
2023/03/27 12:50:51;;;;;;;7.43;3.45;;;11.70;99.90;;;;;;5035474;28;20115;-78
2023/03/27 12:53:29;;;;;;;11.88;5.03;;;11.60;99.90;;;;;;5034270;28;20030;-78
2023/03/27 12:56:11;;;;;;;31.55;13.25;;;11.50;99.90;;;;;;5034754;28;20029;-80
2023/03/27 12:58:38;;;;;;;10.05;3.55;;;11.50;99.90;;;;;;5034774;28;20476;-79
2023/03/27 13:01:09;;;;;;;8.07;4.00;;;11.60;99.90;;;;;;5034134;28;20120;-79
2023/03/27 13:03:55;;;;;;;5.53;3.33;;;11.60;99.90;;;;;;5036375;28;20033;-79
2023/03/27 13:06:49;;;;;;;12.20;8.57;;;11.20;99.90;;;;;;5035742;28;20063;-79
2023/03/27 13:09:37;;;;;;;9.82;5.78;;;11.10;99.90;;;;;;5025648;28;20117;-79